Rockwell, North Carolina
Current Conditions -  °F | °C
As of 5:35 AM on Thursday 27 Nov 2014 (Local Time) from KRUQ Reporting Station
Light Rain Light Rain  
Wind Chill: 39°   Ceiling: 7000
Heat Index: 39°   Visibility: 5mi
Dew Point: 39°   Wind: 3mph
Humidity: 99%   Direction: 130°SE
Pressure: 29.95"   Gusts: NA
Location:  35.55°N, 80.41°W
Report Text: KRUQ 271035Z AUTO 13003KT 5SM -RA SCT039 BKN070 OVC080 04/04 A2995 RMK AO2 T00410040
Loading
Personal Weather Stations






























Interactive Weather Map New forecast layout! Learn more

10-Day Weather Forecast

Advertisements
Track Severe Weather on mobile